sensor_id;sensor_type;location;lat;lon;timestamp;temperature;humidity
20091;DHT22;10205;49.678;6.560;2024-03-08T00:00:00;10.20;61.00
20091;DHT22;10205;49.678;6.560;2024-03-08T00:02:35;10.20;61.10
20091;DHT22;10205;49.678;6.560;2024-03-08T00:05:04;10.20;61.10
20091;DHT22;10205;49.678;6.560;2024-03-08T00:07:32;10.10;61.20
20091;DHT22;10205;49.678;6.560;2024-03-08T00:09:59;10.10;61.30
20091;DHT22;10205;49.678;6.560;2024-03-08T00:12:27;10.10;61.30
20091;DHT22;10205;49.678;6.560;2024-03-08T00:14:54;10.00;61.30
20091;DHT22;10205;49.678;6.560;2024-03-08T00:17:22;10.00;61.40
20091;DHT22;10205;49.678;6.560;2024-03-08T00:19:51;10.00;61.50
20091;DHT22;10205;49.678;6.560;2024-03-08T00:22:18;10.00;61.50
20091;DHT22;10205;49.678;6.560;2024-03-08T00:24:45;9.90;61.50
20091;DHT22;10205;49.678;6.560;2024-03-08T00:27:12;9.90;61.50
20091;DHT22;10205;49.678;6.560;2024-03-08T00:29:42;9.80;61.50
20091;DHT22;10205;49.678;6.560;2024-03-08T00:32:10;9.80;61.60
20091;DHT22;10205;49.678;6.560;2024-03-08T00:34:38;9.80;61.60
20091;DHT22;10205;49.678;6.560;2024-03-08T00:37:05;9.70;61.70
20091;DHT22;10205;49.678;6.560;2024-03-08T00:39:32;9.70;61.80
20091;DHT22;10205;49.678;6.560;2024-03-08T00:41:59;9.70;61.90
20091;DHT22;10205;49.678;6.560;2024-03-08T00:44:26;9.70;61.90
20091;DHT22;10205;49.678;6.560;2024-03-08T00:46:54;9.60;61.90
20091;DHT22;10205;49.678;6.560;2024-03-08T00:49:22;9.60;61.80
20091;DHT22;10205;49.678;6.560;2024-03-08T00:51:49;9.50;61.90
20091;DHT22;10205;49.678;6.560;2024-03-08T00:54:15;9.50;62.10
20091;DHT22;10205;49.678;6.560;2024-03-08T00:56:43;9.50;62.10
20091;DHT22;10205;49.678;6.560;2024-03-08T00:59:11;9.40;62.00
20091;DHT22;10205;49.678;6.560;2024-03-08T01:01:40;9.40;62.10
20091;DHT22;10205;49.678;6.560;2024-03-08T01:04:08;9.30;61.90
20091;DHT22;10205;49.678;6.560;2024-03-08T01:06:35;9.30;62.00
20091;DHT22;10205;49.678;6.560;2024-03-08T01:09:02;9.30;61.90
20091;DHT22;10205;49.678;6.560;2024-03-08T01:11:32;9.20;61.90
20091;DHT22;10205;49.678;6.560;2024-03-08T01:13:59;9.10;61.90
20091;DHT22;10205;49.678;6.560;2024-03-08T01:16:26;9.10;62.00
20091;DHT22;10205;49.678;6.560;2024-03-08T01:18:53;9.00;62.30
20091;DHT22;10205;49.678;6.560;2024-03-08T01:21:22;9.00;62.40
20091;DHT22;10205;49.678;6.560;2024-03-08T01:23:49;8.90;62.50
20091;DHT22;10205;49.678;6.560;2024-03-08T01:26:16;8.90;62.50
20091;DHT22;10205;49.678;6.560;2024-03-08T01:28:43;8.90;62.60
20091;DHT22;10205;49.678;6.560;2024-03-08T01:31:10;8.80;62.60
20091;DHT22;10205;49.678;6.560;2024-03-08T01:33:37;8.80;62.60
20091;DHT22;10205;49.678;6.560;2024-03-08T01:36:06;8.80;62.30
20091;DHT22;10205;49.678;6.560;2024-03-08T01:38:35;8.70;62.20
20091;DHT22;10205;49.678;6.560;2024-03-08T01:41:02;8.70;62.30
20091;DHT22;10205;49.678;6.560;2024-03-08T01:43:29;8.60;62.50
20091;DHT22;10205;49.678;6.560;2024-03-08T01:45:58;8.60;62.70
20091;DHT22;10205;49.678;6.560;2024-03-08T01:48:26;8.50;62.90
20091;DHT22;10205;49.678;6.560;2024-03-08T01:50:55;8.50;63.00
20091;DHT22;10205;49.678;6.560;2024-03-08T01:53:24;8.50;63.10
20091;DHT22;10205;49.678;6.560;2024-03-08T01:55:55;8.50;63.10
20091;DHT22;10205;49.678;6.560;2024-03-08T01:58:24;8.50;63.30
20091;DHT22;10205;49.678;6.560;2024-03-08T02:00:56;8.50;63.20
20091;DHT22;10205;49.678;6.560;2024-03-08T02:03:23;8.40;63.40
20091;DHT22;10205;49.678;6.560;2024-03-08T02:05:50;8.40;63.30
20091;DHT22;10205;49.678;6.560;2024-03-08T02:08:18;8.40;63.20
20091;DHT22;10205;49.678;6.560;2024-03-08T02:10:48;8.30;63.20
20091;DHT22;10205;49.678;6.560;2024-03-08T02:13:17;8.30;63.40
20091;DHT22;10205;49.678;6.560;2024-03-08T02:15:56;8.30;63.30
20091;DHT22;10205;49.678;6.560;2024-03-08T02:18:33;8.30;63.50
20091;DHT22;10205;49.678;6.560;2024-03-08T02:21:03;8.30;63.50
20091;DHT22;10205;49.678;6.560;2024-03-08T02:23:32;8.20;63.70
20091;DHT22;10205;49.678;6.560;2024-03-08T02:26:00;8.20;63.80
20091;DHT22;10205;49.678;6.560;2024-03-08T02:28:27;8.20;63.80
20091;DHT22;10205;49.678;6.560;2024-03-08T02:30:54;8.20;63.90
20091;DHT22;10205;49.678;6.560;2024-03-08T02:33:22;8.20;64.10
20091;DHT22;10205;49.678;6.560;2024-03-08T02:35:50;8.10;64.10
20091;DHT22;10205;49.678;6.560;2024-03-08T02:38:20;8.20;64.20
20091;DHT22;10205;49.678;6.560;2024-03-08T02:40:51;8.10;64.10
20091;DHT22;10205;49.678;6.560;2024-03-08T02:43:20;8.10;64.20
20091;DHT22;10205;49.678;6.560;2024-03-08T02:45:50;8.10;64.20
20091;DHT22;10205;49.678;6.560;2024-03-08T02:48:18;8.10;64.10
20091;DHT22;10205;49.678;6.560;2024-03-08T02:50:46;8.10;64.10
20091;DHT22;10205;49.678;6.560;2024-03-08T02:53:14;8.00;64.10
20091;DHT22;10205;49.678;6.560;2024-03-08T02:55:42;8.00;64.30
20091;DHT22;10205;49.678;6.560;2024-03-08T02:58:09;8.00;64.50
20091;DHT22;10205;49.678;6.560;2024-03-08T03:00:37;8.00;64.50
20091;DHT22;10205;49.678;6.560;2024-03-08T03:03:06;8.00;64.60
20091;DHT22;10205;49.678;6.560;2024-03-08T03:05:33;8.00;64.60
20091;DHT22;10205;49.678;6.560;2024-03-08T03:08:01;8.00;64.50
20091;DHT22;10205;49.678;6.560;2024-03-08T03:10:29;8.00;64.50
20091;DHT22;10205;49.678;6.560;2024-03-08T03:12:58;8.00;64.60
20091;DHT22;10205;49.678;6.560;2024-03-08T03:15:25;8.00;64.50
20091;DHT22;10205;49.678;6.560;2024-03-08T03:17:52;8.00;64.50
20091;DHT22;10205;49.678;6.560;2024-03-08T03:20:19;8.00;64.60
20091;DHT22;10205;49.678;6.560;2024-03-08T03:22:52;8.00;64.50
20091;DHT22;10205;49.678;6.560;2024-03-08T03:25:19;8.00;64.50
20091;DHT22;10205;49.678;6.560;2024-03-08T03:27:51;8.00;64.40
20091;DHT22;10205;49.678;6.560;2024-03-08T03:30:23;8.00;64.30
20091;DHT22;10205;49.678;6.560;2024-03-08T03:32:52;8.00;64.30
20091;DHT22;10205;49.678;6.560;2024-03-08T03:35:22;8.00;64.40
20091;DHT22;10205;49.678;6.560;2024-03-08T03:37:49;7.90;64.30
20091;DHT22;10205;49.678;6.560;2024-03-08T03:40:27;7.90;64.20
20091;DHT22;10205;49.678;6.560;2024-03-08T03:42:54;7.90;64.30
20091;DHT22;10205;49.678;6.560;2024-03-08T03:45:23;7.90;64.40
20091;DHT22;10205;49.678;6.560;2024-03-08T03:47:50;7.90;64.40
20091;DHT22;10205;49.678;6.560;2024-03-08T03:50:17;7.90;64.40
20091;DHT22;10205;49.678;6.560;2024-03-08T03:52:45;7.90;64.40
20091;DHT22;10205;49.678;6.560;2024-03-08T03:55:12;7.90;64.30
20091;DHT22;10205;49.678;6.560;2024-03-08T03:57:40;7.80;64.30
20091;DHT22;10205;49.678;6.560;2024-03-08T04:00:08;7.80;64.40
20091;DHT22;10205;49.678;6.560;2024-03-08T04:02:38;7.80;64.30
20091;DHT22;10205;49.678;6.560;2024-03-08T04:05:06;7.80;65.10
20091;DHT22;10205;49.678;6.560;2024-03-08T04:07:34;7.80;64.20
20091;DHT22;10205;49.678;6.560;2024-03-08T04:10:01;7.80;64.20
20091;DHT22;10205;49.678;6.560;2024-03-08T04:12:28;7.80;64.10
20091;DHT22;10205;49.678;6.560;2024-03-08T04:14:56;7.70;64.00
20091;DHT22;10205;49.678;6.560;2024-03-08T04:17:23;7.70;64.00
20091;DHT22;10205;49.678;6.560;2024-03-08T04:19:52;7.70;63.90
20091;DHT22;10205;49.678;6.560;2024-03-08T04:22:19;7.70;64.00
20091;DHT22;10205;49.678;6.560;2024-03-08T04:24:47;7.60;64.20
20091;DHT22;10205;49.678;6.560;2024-03-08T04:27:14;7.60;64.30
20091;DHT22;10205;49.678;6.560;2024-03-08T04:29:41;7.60;64.60
20091;DHT22;10205;49.678;6.560;2024-03-08T04:32:09;7.50;64.60
20091;DHT22;10205;49.678;6.560;2024-03-08T04:34:39;7.50;64.70
20091;DHT22;10205;49.678;6.560;2024-03-08T04:37:07;7.50;64.80
20091;DHT22;10205;49.678;6.560;2024-03-08T04:39:36;7.50;65.00
20091;DHT22;10205;49.678;6.560;2024-03-08T04:42:04;7.50;65.00
20091;DHT22;10205;49.678;6.560;2024-03-08T04:44:35;7.50;65.00
20091;DHT22;10205;49.678;6.560;2024-03-08T04:47:03;7.40;65.00
20091;DHT22;10205;49.678;6.560;2024-03-08T04:49:31;7.40;65.20
20091;DHT22;10205;49.678;6.560;2024-03-08T04:52:01;7.40;65.20
20091;DHT22;10205;49.678;6.560;2024-03-08T04:54:30;7.40;65.20
20091;DHT22;10205;49.678;6.560;2024-03-08T04:56:57;7.40;65.20
20091;DHT22;10205;49.678;6.560;2024-03-08T04:59:25;7.40;65.10
20091;DHT22;10205;49.678;6.560;2024-03-08T05:01:52;7.40;65.20
20091;DHT22;10205;49.678;6.560;2024-03-08T05:04:19;7.30;65.20
20091;DHT22;10205;49.678;6.560;2024-03-08T05:06:46;7.30;65.30
20091;DHT22;10205;49.678;6.560;2024-03-08T05:09:14;7.30;65.30
20091;DHT22;10205;49.678;6.560;2024-03-08T05:11:43;7.30;65.30
20091;DHT22;10205;49.678;6.560;2024-03-08T05:14:11;7.30;65.40
20091;DHT22;10205;49.678;6.560;2024-03-08T05:16:41;7.30;65.40
20091;DHT22;10205;49.678;6.560;2024-03-08T05:19:08;7.30;65.40
20091;DHT22;10205;49.678;6.560;2024-03-08T05:21:35;7.30;65.30
20091;DHT22;10205;49.678;6.560;2024-03-08T05:24:03;7.20;65.30
20091;DHT22;10205;49.678;6.560;2024-03-08T05:26:30;7.20;65.30
20091;DHT22;10205;49.678;6.560;2024-03-08T05:29:00;7.20;65.30
20091;DHT22;10205;49.678;6.560;2024-03-08T05:31:27;7.20;65.30
20091;DHT22;10205;49.678;6.560;2024-03-08T05:33:54;7.20;65.10
20091;DHT22;10205;49.678;6.560;2024-03-08T05:36:21;7.20;65.00
20091;DHT22;10205;49.678;6.560;2024-03-08T05:38:48;7.10;64.90
20091;DHT22;10205;49.678;6.560;2024-03-08T05:41:16;7.10;65.00
20091;DHT22;10205;49.678;6.560;2024-03-08T05:43:44;7.00;65.00
20091;DHT22;10205;49.678;6.560;2024-03-08T05:46:15;7.00;65.10
20091;DHT22;10205;49.678;6.560;2024-03-08T05:48:43;7.00;65.20
20091;DHT22;10205;49.678;6.560;2024-03-08T05:51:10;7.00;65.90
20091;DHT22;10205;49.678;6.560;2024-03-08T05:53:38;6.90;65.10
20091;DHT22;10205;49.678;6.560;2024-03-08T05:56:06;6.90;65.30
20091;DHT22;10205;49.678;6.560;2024-03-08T05:58:35;6.80;65.20
20091;DHT22;10205;49.678;6.560;2024-03-08T06:01:02;6.80;65.30
20091;DHT22;10205;49.678;6.560;2024-03-08T06:03:34;6.80;65.40
20091;DHT22;10205;49.678;6.560;2024-03-08T06:06:01;6.80;65.40
20091;DHT22;10205;49.678;6.560;2024-03-08T06:08:28;6.70;65.30
20091;DHT22;10205;49.678;6.560;2024-03-08T06:10:56;6.70;65.30
20091;DHT22;10205;49.678;6.560;2024-03-08T06:13:24;6.70;65.40
20091;DHT22;10205;49.678;6.560;2024-03-08T06:15:51;6.70;65.40
20091;DHT22;10205;49.678;6.560;2024-03-08T06:18:18;6.60;65.40
20091;DHT22;10205;49.678;6.560;2024-03-08T06:20:47;6.60;65.50
20091;DHT22;10205;49.678;6.560;2024-03-08T06:23:14;6.60;65.50
20091;DHT22;10205;49.678;6.560;2024-03-08T06:25:43;6.60;65.50
20091;DHT22;10205;49.678;6.560;2024-03-08T06:28:10;6.50;65.70
20091;DHT22;10205;49.678;6.560;2024-03-08T06:30:37;6.50;65.70
20091;DHT22;10205;49.678;6.560;2024-03-08T06:33:04;6.50;65.80
20091;DHT22;10205;49.678;6.560;2024-03-08T06:35:32;6.50;66.00
20091;DHT22;10205;49.678;6.560;2024-03-08T06:38:04;6.50;66.00
20091;DHT22;10205;49.678;6.560;2024-03-08T06:40:31;6.40;66.10
20091;DHT22;10205;49.678;6.560;2024-03-08T06:42:59;6.40;66.10
20091;DHT22;10205;49.678;6.560;2024-03-08T06:45:26;6.40;66.10
20091;DHT22;10205;49.678;6.560;2024-03-08T06:47:54;6.40;66.20
20091;DHT22;10205;49.678;6.560;2024-03-08T06:50:21;6.40;66.30
20091;DHT22;10205;49.678;6.560;2024-03-08T06:52:48;6.30;66.30
20091;DHT22;10205;49.678;6.560;2024-03-08T06:55:20;6.30;66.40
20091;DHT22;10205;49.678;6.560;2024-03-08T06:57:47;6.30;66.60
20091;DHT22;10205;49.678;6.560;2024-03-08T07:00:15;6.30;66.60
20091;DHT22;10205;49.678;6.560;2024-03-08T07:02:46;6.30;66.60
20091;DHT22;10205;49.678;6.560;2024-03-08T07:05:14;6.30;66.60
20091;DHT22;10205;49.678;6.560;2024-03-08T07:07:42;6.30;66.70
20091;DHT22;10205;49.678;6.560;2024-03-08T07:10:09;6.30;66.60
20091;DHT22;10205;49.678;6.560;2024-03-08T07:12:38;6.30;66.60
20091;DHT22;10205;49.678;6.560;2024-03-08T07:15:06;6.20;66.60
20091;DHT22;10205;49.678;6.560;2024-03-08T07:17:38;6.30;66.70
20091;DHT22;10205;49.678;6.560;2024-03-08T07:20:06;6.20;66.60
20091;DHT22;10205;49.678;6.560;2024-03-08T07:22:37;6.20;66.70
20091;DHT22;10205;49.678;6.560;2024-03-08T07:25:05;6.30;66.70
20091;DHT22;10205;49.678;6.560;2024-03-08T07:27:47;6.30;66.70
20091;DHT22;10205;49.678;6.560;2024-03-08T07:30:15;6.30;66.70
20091;DHT22;10205;49.678;6.560;2024-03-08T07:33:04;6.30;66.60
20091;DHT22;10205;49.678;6.560;2024-03-08T07:35:32;6.30;66.60
20091;DHT22;10205;49.678;6.560;2024-03-08T07:38:03;6.30;66.60
20091;DHT22;10205;49.678;6.560;2024-03-08T07:40:31;6.30;66.70
20091;DHT22;10205;49.678;6.560;2024-03-08T07:43:00;6.30;66.70
20091;DHT22;10205;49.678;6.560;2024-03-08T07:45:28;6.30;66.70
20091;DHT22;10205;49.678;6.560;2024-03-08T07:47:56;6.30;67.50
20091;DHT22;10205;49.678;6.560;2024-03-08T07:50:23;6.30;66.80
20091;DHT22;10205;49.678;6.560;2024-03-08T07:52:50;6.40;66.90
20091;DHT22;10205;49.678;6.560;2024-03-08T07:55:17;6.40;67.80
20091;DHT22;10205;49.678;6.560;2024-03-08T07:57:44;6.40;67.00
20091;DHT22;10205;49.678;6.560;2024-03-08T08:00:15;6.40;67.10
20091;DHT22;10205;49.678;6.560;2024-03-08T08:02:44;6.40;67.10
20091;DHT22;10205;49.678;6.560;2024-03-08T08:05:12;6.40;67.00
20091;DHT22;10205;49.678;6.560;2024-03-08T08:07:39;6.50;67.10
20091;DHT22;10205;49.678;6.560;2024-03-08T08:10:09;6.50;67.20
20091;DHT22;10205;49.678;6.560;2024-03-08T08:12:42;6.50;67.20
20091;DHT22;10205;49.678;6.560;2024-03-08T08:15:09;6.60;67.30
20091;DHT22;10205;49.678;6.560;2024-03-08T08:17:38;6.60;68.10
20091;DHT22;10205;49.678;6.560;2024-03-08T08:20:06;6.60;67.20
20091;DHT22;10205;49.678;6.560;2024-03-08T08:22:33;6.60;67.20
20091;DHT22;10205;49.678;6.560;2024-03-08T08:25:00;6.70;67.20
20091;DHT22;10205;49.678;6.560;2024-03-08T08:27:28;6.70;67.20
20091;DHT22;10205;49.678;6.560;2024-03-08T08:29:55;6.80;67.20
20091;DHT22;10205;49.678;6.560;2024-03-08T08:32:22;6.80;67.20
20091;DHT22;10205;49.678;6.560;2024-03-08T08:34:51;6.90;67.30
20091;DHT22;10205;49.678;6.560;2024-03-08T08:37:18;6.90;67.20
20091;DHT22;10205;49.678;6.560;2024-03-08T08:39:45;7.00;67.20
20091;DHT22;10205;49.678;6.560;2024-03-08T08:42:12;7.10;67.20
20091;DHT22;10205;49.678;6.560;2024-03-08T08:44:39;7.10;67.10
20091;DHT22;10205;49.678;6.560;2024-03-08T08:47:06;7.20;67.10
20091;DHT22;10205;49.678;6.560;2024-03-08T08:49:33;7.30;67.10
20091;DHT22;10205;49.678;6.560;2024-03-08T08:52:03;7.30;67.00
20091;DHT22;10205;49.678;6.560;2024-03-08T08:54:31;7.40;67.10
20091;DHT22;10205;49.678;6.560;2024-03-08T08:56:58;7.40;66.80
20091;DHT22;10205;49.678;6.560;2024-03-08T08:59:25;7.50;66.80
20091;DHT22;10205;49.678;6.560;2024-03-08T09:01:52;7.60;66.90
20091;DHT22;10205;49.678;6.560;2024-03-08T09:04:20;7.60;66.90
20091;DHT22;10205;49.678;6.560;2024-03-08T09:06:48;7.70;66.80
20091;DHT22;10205;49.678;6.560;2024-03-08T09:09:16;7.80;66.80
20091;DHT22;10205;49.678;6.560;2024-03-08T09:11:44;7.90;66.60
20091;DHT22;10205;49.678;6.560;2024-03-08T09:14:11;8.00;66.60
20091;DHT22;10205;49.678;6.560;2024-03-08T09:16:39;8.10;66.50
20091;DHT22;10205;49.678;6.560;2024-03-08T09:19:06;8.10;66.40
20091;DHT22;10205;49.678;6.560;2024-03-08T09:21:36;8.20;66.30
20091;DHT22;10205;49.678;6.560;2024-03-08T09:24:05;8.30;66.30
20091;DHT22;10205;49.678;6.560;2024-03-08T09:26:34;8.30;66.20
20091;DHT22;10205;49.678;6.560;2024-03-08T09:29:02;8.40;66.00
20091;DHT22;10205;49.678;6.560;2024-03-08T09:31:30;8.50;65.80
20091;DHT22;10205;49.678;6.560;2024-03-08T09:33:57;8.60;65.70
20091;DHT22;10205;49.678;6.560;2024-03-08T09:36:24;8.70;65.80
20091;DHT22;10205;49.678;6.560;2024-03-08T09:38:52;8.80;65.70
20091;DHT22;10205;49.678;6.560;2024-03-08T09:41:19;8.90;65.80
20091;DHT22;10205;49.678;6.560;2024-03-08T09:43:48;8.90;65.50
20091;DHT22;10205;49.678;6.560;2024-03-08T09:46:15;9.10;65.50
20091;DHT22;10205;49.678;6.560;2024-03-08T09:48:44;9.10;65.40
20091;DHT22;10205;49.678;6.560;2024-03-08T09:51:12;9.20;65.40
20091;DHT22;10205;49.678;6.560;2024-03-08T09:53:40;9.30;66.00
20091;DHT22;10205;49.678;6.560;2024-03-08T09:56:08;9.40;65.20
20091;DHT22;10205;49.678;6.560;2024-03-08T09:58:37;9.50;65.10
20091;DHT22;10205;49.678;6.560;2024-03-08T10:01:20;9.60;64.80
20091;DHT22;10205;49.678;6.560;2024-03-08T10:03:47;9.70;64.80
20091;DHT22;10205;49.678;6.560;2024-03-08T10:06:15;9.80;64.90
20091;DHT22;10205;49.678;6.560;2024-03-08T10:08:44;9.90;64.90
20091;DHT22;10205;49.678;6.560;2024-03-08T10:11:11;10.10;64.80
20091;DHT22;10205;49.678;6.560;2024-03-08T10:13:38;10.10;64.40
20091;DHT22;10205;49.678;6.560;2024-03-08T10:16:07;10.30;64.30
20091;DHT22;10205;49.678;6.560;2024-03-08T10:18:36;10.30;64.10
20091;DHT22;10205;49.678;6.560;2024-03-08T10:21:05;10.40;63.80
20091;DHT22;10205;49.678;6.560;2024-03-08T10:23:34;10.50;63.70
20091;DHT22;10205;49.678;6.560;2024-03-08T10:26:10;10.60;63.50
20091;DHT22;10205;49.678;6.560;2024-03-08T10:28:40;10.70;63.00
20091;DHT22;10205;49.678;6.560;2024-03-08T10:31:08;10.80;63.20
20091;DHT22;10205;49.678;6.560;2024-03-08T10:33:37;10.90;63.00
20091;DHT22;10205;49.678;6.560;2024-03-08T10:36:07;11.00;62.60
20091;DHT22;10205;49.678;6.560;2024-03-08T10:38:36;11.10;62.30
20091;DHT22;10205;49.678;6.560;2024-03-08T10:41:05;11.20;62.20
20091;DHT22;10205;49.678;6.560;2024-03-08T10:43:52;11.20;62.50
20091;DHT22;10205;49.678;6.560;2024-03-08T10:46:42;11.30;61.80
20091;DHT22;10205;49.678;6.560;2024-03-08T10:49:26;11.40;61.90
20091;DHT22;10205;49.678;6.560;2024-03-08T10:52:02;11.50;61.70
20091;DHT22;10205;49.678;6.560;2024-03-08T10:54:31;11.60;61.90
20091;DHT22;10205;49.678;6.560;2024-03-08T10:57:02;11.70;62.00
20091;DHT22;10205;49.678;6.560;2024-03-08T10:59:32;11.80;61.40
20091;DHT22;10205;49.678;6.560;2024-03-08T11:02:00;11.90;61.20
20091;DHT22;10205;49.678;6.560;2024-03-08T11:04:28;11.90;61.10
20091;DHT22;10205;49.678;6.560;2024-03-08T11:07:01;12.00;60.90
20091;DHT22;10205;49.678;6.560;2024-03-08T11:09:32;12.10;60.70
20091;DHT22;10205;49.678;6.560;2024-03-08T11:12:22;12.20;60.90
20091;DHT22;10205;49.678;6.560;2024-03-08T11:14:53;12.30;59.80
20091;DHT22;10205;49.678;6.560;2024-03-08T11:17:21;12.30;60.30
20091;DHT22;10205;49.678;6.560;2024-03-08T11:19:55;12.40;60.20
20091;DHT22;10205;49.678;6.560;2024-03-08T11:22:28;12.50;59.80
20091;DHT22;10205;49.678;6.560;2024-03-08T11:24:59;12.60;59.60
20091;DHT22;10205;49.678;6.560;2024-03-08T11:27:31;12.60;59.90
20091;DHT22;10205;49.678;6.560;2024-03-08T11:30:04;12.70;59.50
20091;DHT22;10205;49.678;6.560;2024-03-08T11:32:37;12.80;59.60
20091;DHT22;10205;49.678;6.560;2024-03-08T11:35:18;12.90;59.60
20091;DHT22;10205;49.678;6.560;2024-03-08T11:37:46;12.90;59.30
20091;DHT22;10205;49.678;6.560;2024-03-08T11:40:15;13.00;59.80
20091;DHT22;10205;49.678;6.560;2024-03-08T11:42:44;13.10;59.60
20091;DHT22;10205;49.678;6.560;2024-03-08T11:45:13;13.10;59.20
20091;DHT22;10205;49.678;6.560;2024-03-08T11:47:42;13.20;59.10
20091;DHT22;10205;49.678;6.560;2024-03-08T11:50:13;13.30;59.10
20091;DHT22;10205;49.678;6.560;2024-03-08T11:52:43;13.30;58.90
20091;DHT22;10205;49.678;6.560;2024-03-08T11:55:11;13.40;58.80
20091;DHT22;10205;49.678;6.560;2024-03-08T11:57:39;13.50;58.70
20091;DHT22;10205;49.678;6.560;2024-03-08T12:00:15;13.60;58.30
20091;DHT22;10205;49.678;6.560;2024-03-08T12:03:01;13.60;56.90
20091;DHT22;10205;49.678;6.560;2024-03-08T12:05:30;13.70;57.10
20091;DHT22;10205;49.678;6.560;2024-03-08T12:07:59;13.70;57.70
20091;DHT22;10205;49.678;6.560;2024-03-08T12:10:26;13.70;57.20
20091;DHT22;10205;49.678;6.560;2024-03-08T12:12:55;13.80;57.40
20091;DHT22;10205;49.678;6.560;2024-03-08T12:15:25;13.90;57.30
20091;DHT22;10205;49.678;6.560;2024-03-08T12:17:54;13.90;57.00
20091;DHT22;10205;49.678;6.560;2024-03-08T12:20:23;14.00;57.10
20091;DHT22;10205;49.678;6.560;2024-03-08T12:22:54;14.00;57.10
20091;DHT22;10205;49.678;6.560;2024-03-08T12:25:22;14.10;57.00
20091;DHT22;10205;49.678;6.560;2024-03-08T12:27:52;14.10;57.10
20091;DHT22;10205;49.678;6.560;2024-03-08T12:30:23;14.10;57.10
20091;DHT22;10205;49.678;6.560;2024-03-08T12:32:54;14.20;57.00
20091;DHT22;10205;49.678;6.560;2024-03-08T12:35:24;14.20;57.10
20091;DHT22;10205;49.678;6.560;2024-03-08T12:37:55;14.30;56.70
20091;DHT22;10205;49.678;6.560;2024-03-08T12:40:26;14.30;56.90
20091;DHT22;10205;49.678;6.560;2024-03-08T12:42:55;14.40;56.60
20091;DHT22;10205;49.678;6.560;2024-03-08T12:45:22;14.40;56.40
20091;DHT22;10205;49.678;6.560;2024-03-08T12:47:50;14.50;56.50
20091;DHT22;10205;49.678;6.560;2024-03-08T12:50:18;14.50;56.40
20091;DHT22;10205;49.678;6.560;2024-03-08T12:52:46;14.50;56.30
20091;DHT22;10205;49.678;6.560;2024-03-08T12:55:15;14.50;56.60
20091;DHT22;10205;49.678;6.560;2024-03-08T12:57:44;14.60;56.10
20091;DHT22;10205;49.678;6.560;2024-03-08T13:00:13;14.60;56.10
20091;DHT22;10205;49.678;6.560;2024-03-08T13:02:44;14.70;56.50
20091;DHT22;10205;49.678;6.560;2024-03-08T13:05:11;14.70;56.40
20091;DHT22;10205;49.678;6.560;2024-03-08T13:07:39;14.70;56.50
20091;DHT22;10205;49.678;6.560;2024-03-08T13:10:11;14.70;56.40
20091;DHT22;10205;49.678;6.560;2024-03-08T13:12:42;14.80;55.90
20091;DHT22;10205;49.678;6.560;2024-03-08T13:15:09;14.80;55.30
20091;DHT22;10205;49.678;6.560;2024-03-08T13:17:40;14.90;55.70
20091;DHT22;10205;49.678;6.560;2024-03-08T13:20:08;14.90;56.30
20091;DHT22;10205;49.678;6.560;2024-03-08T13:22:42;14.90;54.70
20091;DHT22;10205;49.678;6.560;2024-03-08T13:25:09;14.90;54.30
20091;DHT22;10205;49.678;6.560;2024-03-08T13:27:38;14.90;54.10
20091;DHT22;10205;49.678;6.560;2024-03-08T13:30:09;14.90;54.20
20091;DHT22;10205;49.678;6.560;2024-03-08T13:32:39;14.90;53.80
20091;DHT22;10205;49.678;6.560;2024-03-08T13:35:08;14.90;54.20
20091;DHT22;10205;49.678;6.560;2024-03-08T13:37:39;14.90;54.20
20091;DHT22;10205;49.678;6.560;2024-03-08T13:40:08;14.90;53.90
20091;DHT22;10205;49.678;6.560;2024-03-08T13:42:39;15.00;53.70
20091;DHT22;10205;49.678;6.560;2024-03-08T13:45:10;15.00;53.50
20091;DHT22;10205;49.678;6.560;2024-03-08T13:47:40;15.00;53.70
20091;DHT22;10205;49.678;6.560;2024-03-08T13:50:10;15.00;53.80
20091;DHT22;10205;49.678;6.560;2024-03-08T13:52:39;15.00;53.70
20091;DHT22;10205;49.678;6.560;2024-03-08T13:55:08;15.10;53.70
20091;DHT22;10205;49.678;6.560;2024-03-08T13:57:42;15.10;53.10
20091;DHT22;10205;49.678;6.560;2024-03-08T14:00:13;15.10;53.30
20091;DHT22;10205;49.678;6.560;2024-03-08T14:02:50;15.10;53.50
20091;DHT22;10205;49.678;6.560;2024-03-08T14:05:19;15.10;53.60
20091;DHT22;10205;49.678;6.560;2024-03-08T14:07:47;15.20;53.70
20091;DHT22;10205;49.678;6.560;2024-03-08T14:10:16;15.20;53.20
20091;DHT22;10205;49.678;6.560;2024-03-08T14:12:45;15.20;53.10
20091;DHT22;10205;49.678;6.560;2024-03-08T14:15:17;15.20;53.30
20091;DHT22;10205;49.678;6.560;2024-03-08T14:17:52;15.20;53.20
20091;DHT22;10205;49.678;6.560;2024-03-08T14:20:22;15.20;52.60
20091;DHT22;10205;49.678;6.560;2024-03-08T14:22:52;15.20;53.20
20091;DHT22;10205;49.678;6.560;2024-03-08T14:25:20;15.20;53.10
20091;DHT22;10205;49.678;6.560;2024-03-08T14:27:50;15.20;53.10
20091;DHT22;10205;49.678;6.560;2024-03-08T14:30:21;15.30;53.50
20091;DHT22;10205;49.678;6.560;2024-03-08T14:33:01;15.30;53.00
20091;DHT22;10205;49.678;6.560;2024-03-08T14:35:31;15.30;53.30
20091;DHT22;10205;49.678;6.560;2024-03-08T14:38:01;15.30;53.20
20091;DHT22;10205;49.678;6.560;2024-03-08T14:40:30;15.30;53.10
20091;DHT22;10205;49.678;6.560;2024-03-08T14:42:57;15.30;53.00
20091;DHT22;10205;49.678;6.560;2024-03-08T14:45:26;15.30;52.80
20091;DHT22;10205;49.678;6.560;2024-03-08T14:47:53;15.30;52.70
20091;DHT22;10205;49.678;6.560;2024-03-08T14:50:22;15.30;52.90
20091;DHT22;10205;49.678;6.560;2024-03-08T14:52:51;15.30;52.90
20091;DHT22;10205;49.678;6.560;2024-03-08T14:55:20;15.30;53.10
20091;DHT22;10205;49.678;6.560;2024-03-08T14:57:48;15.30;52.90
20091;DHT22;10205;49.678;6.560;2024-03-08T15:00:17;15.30;52.80
20091;DHT22;10205;49.678;6.560;2024-03-08T15:02:53;15.30;52.80
20091;DHT22;10205;49.678;6.560;2024-03-08T15:05:21;15.30;52.80
20091;DHT22;10205;49.678;6.560;2024-03-08T15:07:52;15.30;53.60
20091;DHT22;10205;49.678;6.560;2024-03-08T15:10:19;15.30;53.10
20091;DHT22;10205;49.678;6.560;2024-03-08T15:12:50;15.30;53.20
20091;DHT22;10205;49.678;6.560;2024-03-08T15:15:21;15.30;52.90
20091;DHT22;10205;49.678;6.560;2024-03-08T15:17:50;15.30;53.00
20091;DHT22;10205;49.678;6.560;2024-03-08T15:20:21;15.30;53.10
20091;DHT22;10205;49.678;6.560;2024-03-08T15:22:51;15.30;53.10
20091;DHT22;10205;49.678;6.560;2024-03-08T15:25:20;15.40;53.30
20091;DHT22;10205;49.678;6.560;2024-03-08T15:27:51;15.40;53.10
20091;DHT22;10205;49.678;6.560;2024-03-08T15:30:19;15.30;52.90
20091;DHT22;10205;49.678;6.560;2024-03-08T15:32:48;15.30;53.10
20091;DHT22;10205;49.678;6.560;2024-03-08T15:35:16;15.40;53.00
20091;DHT22;10205;49.678;6.560;2024-03-08T15:37:45;15.40;52.90
20091;DHT22;10205;49.678;6.560;2024-03-08T15:40:13;15.30;52.70
20091;DHT22;10205;49.678;6.560;2024-03-08T15:42:54;15.40;52.80
20091;DHT22;10205;49.678;6.560;2024-03-08T15:45:22;15.40;52.70
20091;DHT22;10205;49.678;6.560;2024-03-08T15:47:50;15.40;52.70
20091;DHT22;10205;49.678;6.560;2024-03-08T15:50:17;15.30;52.80